Terminal Aerodrome Forecast
Issued by NWS Pocatello, ID

Home | Current Version | Previous Version | Text Only | Print | Product List | Glossary On
Versions: 1 2 3 4 5 6 7 8 9 10 11 12 13
000
FTUS45 KPIH 291120
TAFBYI
TAF
KBYI 291120Z 2912/3012 29009KT P6SM -SHRA SCT040 OVC070
     FM291600 27012KT P6SM -SHRA VCTS OVC060CB
     FM300200 27010KT P6SM VCSH OVC090=

USA.gov is the U.S. government's official web portal to all federal, state and local government web resources and services.